Time;durP1;ratioP1;P1;durP2;ratioP2;P2;SDS_P1;SDS_P2;PMS_P1;PMS_P2;Temp;Humidity;BMP_temperature;BMP_pressure;BME280_temperature;BME280_humidity;BME280_pressure;Samples;Min_cycle;Max_cycle;Signal;HPM_P1;HPM_P2
2023/06/05 00:00:21;;;;;;;7.15;5.13;;;;;;;;;;5000062;28;20057;-59
2023/06/05 00:02:48;;;;;;;8.88;5.13;;;;;;;;;;4999315;28;20042;-59
2023/06/05 00:05:15;;;;;;;7.15;5.45;;;;;;;;;;4999460;28;20417;-59
2023/06/05 00:07:41;;;;;;;8.73;5.00;;;;;;;;;;4999582;28;20506;-59
2023/06/05 00:10:07;;;;;;;6.60;4.68;;;;;;;;;;4996483;28;20961;-58
2023/06/05 00:12:34;;;;;;;10.40;5.70;;;;;;;;;;4997104;28;20033;-58
2023/06/05 00:15:01;;;;;;;8.32;5.32;;;;;;;;;;4997617;28;20037;-59
2023/06/05 00:17:27;;;;;;;7.18;4.35;;;;;;;;;;4998500;28;20039;-59
2023/06/05 00:19:53;;;;;;;7.50;4.20;;;;;;;;;;4998810;28;20030;-59
2023/06/05 00:22:20;;;;;;;7.22;4.25;;;;;;;;;;4998791;28;20492;-59
2023/06/05 00:24:46;;;;;;;11.05;5.00;;;;;;;;;;5000117;28;21274;-59
2023/06/05 00:27:12;;;;;;;7.82;5.10;;;;;;;;;;4999207;28;20762;-59
2023/06/05 00:29:38;;;;;;;7.68;5.13;;;;;;;;;;4999916;28;20105;-59
2023/06/05 00:32:04;;;;;;;6.78;4.03;;;;;;;;;;4998587;28;20111;-59
2023/06/05 00:34:30;;;;;;;8.05;4.28;;;;;;;;;;4999125;28;20048;-58
2023/06/05 00:36:58;;;;;;;8.77;4.45;;;;;;;;;;4999170;28;20034;-59
2023/06/05 00:39:24;;;;;;;6.65;4.43;;;;;;;;;;4999410;28;20060;-59
2023/06/05 00:41:50;;;;;;;6.82;4.00;;;;;;;;;;4999007;28;21578;-58
2023/06/05 00:44:18;;;;;;;6.30;3.92;;;;;;;;;;4999864;28;20041;-59
2023/06/05 00:46:45;;;;;;;10.38;3.90;;;;;;;;;;4998454;28;20119;-59
2023/06/05 00:49:12;;;;;;;7.25;4.35;;;;;;;;;;4999681;28;20029;-59
2023/06/05 00:51:39;;;;;;;7.72;4.28;;;;;;;;;;4998574;28;20049;-59
2023/06/05 00:54:05;;;;;;;8.63;4.05;;;;;;;;;;4999621;28;20057;-58
2023/06/05 00:56:33;;;;;;;6.53;4.15;;;;;;;;;;4998639;28;20112;-59
2023/06/05 00:58:59;;;;;;;7.72;4.30;;;;;;;;;;4999961;28;20065;-58
2023/06/05 01:01:28;;;;;;;6.75;4.13;;;;;;;;;;4998668;28;20025;-59
2023/06/05 01:03:57;;;;;;;7.20;4.25;;;;;;;;;;4998883;28;20080;-58
2023/06/05 01:06:23;;;;;;;7.90;4.40;;;;;;;;;;4998610;28;20077;-59
2023/06/05 01:08:50;;;;;;;8.60;4.75;;;;;;;;;;4999554;28;20045;-58
2023/06/05 01:11:19;;;;;;;7.65;4.53;;;;;;;;;;4999545;28;20064;-58
2023/06/05 01:13:51;;;;;;;8.05;4.60;;;;;;;;;;4999379;28;20076;-58
2023/06/05 01:16:18;;;;;;;9.38;4.38;;;;;;;;;;4999482;28;20401;-58
2023/06/05 01:18:45;;;;;;;8.38;4.90;;;;;;;;;;4999043;28;20036;-59
2023/06/05 01:21:15;;;;;;;8.02;4.80;;;;;;;;;;4999376;28;20164;-58
2023/06/05 01:23:44;;;;;;;9.82;4.50;;;;;;;;;;4999177;28;20099;-59
2023/06/05 01:26:11;;;;;;;8.93;4.85;;;;;;;;;;4999135;28;20029;-59
2023/06/05 01:28:38;;;;;;;8.07;4.93;;;;;;;;;;4999303;28;20038;-59
2023/06/05 01:31:06;;;;;;;7.20;4.50;;;;;;;;;;4999333;28;20543;-59
2023/06/05 01:33:43;;;;;;;8.90;5.18;;;;;;;;;;4998373;28;20045;-58
2023/06/05 01:36:11;;;;;;;8.35;5.22;;;;;;;;;;4998075;28;20037;-58
2023/06/05 01:38:37;;;;;;;9.35;5.25;;;;;;;;;;4998396;28;20087;-59
2023/06/05 01:41:04;;;;;;;8.65;5.07;;;;;;;;;;4998406;28;20038;-58
2023/06/05 01:43:31;;;;;;;10.27;5.15;;;;;;;;;;4998976;28;20112;-59
2023/06/05 01:45:59;;;;;;;8.63;5.47;;;;;;;;;;4997980;28;20034;-59
2023/06/05 01:48:27;;;;;;;7.63;5.18;;;;;;;;;;4998696;28;20057;-58
2023/06/05 01:50:57;;;;;;;10.98;5.50;;;;;;;;;;4997261;28;20160;-58
2023/06/05 01:53:23;;;;;;;8.43;5.40;;;;;;;;;;4997337;28;20120;-58
2023/06/05 01:55:52;;;;;;;12.18;6.05;;;;;;;;;;4998195;28;20067;-59
2023/06/05 01:58:18;;;;;;;11.73;6.20;;;;;;;;;;4998235;28;20034;-59
2023/06/05 02:00:45;;;;;;;8.93;5.55;;;;;;;;;;4997676;28;20034;-59
2023/06/05 02:03:11;;;;;;;9.40;6.22;;;;;;;;;;4996824;28;21302;-58
2023/06/05 02:05:38;;;;;;;11.18;6.68;;;;;;;;;;4996726;28;20033;-59
2023/06/05 02:08:05;;;;;;;11.02;6.50;;;;;;;;;;4996505;28;20046;-58
2023/06/05 02:10:31;;;;;;;10.40;6.72;;;;;;;;;;4998451;28;20128;-58
2023/06/05 02:12:57;;;;;;;10.18;6.72;;;;;;;;;;4997974;28;20064;-59
2023/06/05 02:15:24;;;;;;;10.93;6.53;;;;;;;;;;4997069;28;21329;-58
2023/06/05 02:17:53;;;;;;;10.88;6.63;;;;;;;;;;4995857;28;20047;-58
2023/06/05 02:20:24;;;;;;;11.43;5.80;;;;;;;;;;4995760;28;20139;-58
2023/06/05 02:22:51;;;;;;;10.68;6.25;;;;;;;;;;4997085;28;20079;-58
2023/06/05 02:25:18;;;;;;;9.15;6.63;;;;;;;;;;4995619;28;20172;-58
2023/06/05 02:27:44;;;;;;;10.52;6.20;;;;;;;;;;4990060;28;20500;-59
2023/06/05 02:30:11;;;;;;;10.30;6.45;;;;;;;;;;4998225;28;20055;-58
2023/06/05 02:32:41;;;;;;;10.73;6.00;;;;;;;;;;4997071;28;20332;-58
2023/06/05 02:35:08;;;;;;;9.75;6.13;;;;;;;;;;4996998;28;20030;-59
2023/06/05 02:37:36;;;;;;;9.07;5.80;;;;;;;;;;4996970;28;20040;-58
2023/06/05 02:40:04;;;;;;;9.68;5.95;;;;;;;;;;4997784;28;20160;-58
2023/06/05 02:42:30;;;;;;;7.13;5.20;;;;;;;;;;4997191;28;20072;-58
2023/06/05 02:44:56;;;;;;;8.18;5.68;;;;;;;;;;4997279;28;20038;-59
2023/06/05 02:47:22;;;;;;;10.30;6.05;;;;;;;;;;4996610;28;20037;-58
2023/06/05 02:49:48;;;;;;;8.55;5.68;;;;;;;;;;4997674;28;20150;-58
2023/06/05 02:52:14;;;;;;;8.20;5.85;;;;;;;;;;4998336;28;20048;-59
2023/06/05 02:54:40;;;;;;;9.07;6.07;;;;;;;;;;4996936;28;20033;-58
2023/06/05 02:57:07;;;;;;;10.95;6.25;;;;;;;;;;4998007;28;20038;-58
2023/06/05 02:59:39;;;;;;;9.55;6.22;;;;;;;;;;4998091;28;20890;-58
2023/06/05 03:02:05;;;;;;;9.38;5.95;;;;;;;;;;4999823;28;20029;-59
2023/06/05 03:04:32;;;;;;;9.05;5.60;;;;;;;;;;5001899;28;20176;-58
2023/06/05 03:06:59;;;;;;;8.77;5.75;;;;;;;;;;5001060;28;20894;-58
2023/06/05 03:09:25;;;;;;;10.05;5.97;;;;;;;;;;5000780;28;20026;-58
2023/06/05 03:11:52;;;;;;;8.23;5.57;;;;;;;;;;5001073;28;20052;-59
2023/06/05 03:14:18;;;;;;;8.95;5.85;;;;;;;;;;5000424;28;20508;-59
2023/06/05 03:16:45;;;;;;;9.50;5.65;;;;;;;;;;5001257;28;20116;-58
2023/06/05 03:19:11;;;;;;;8.85;5.65;;;;;;;;;;5000508;28;20650;-58
2023/06/05 03:21:39;;;;;;;9.68;5.55;;;;;;;;;;4999268;28;20030;-58
2023/06/05 03:24:07;;;;;;;7.43;4.97;;;;;;;;;;4999780;28;20045;-59
2023/06/05 03:26:33;;;;;;;7.97;4.72;;;;;;;;;;4999431;28;20042;-58
2023/06/05 03:29:00;;;;;;;6.72;4.38;;;;;;;;;;5000220;28;20030;-59
2023/06/05 03:31:26;;;;;;;7.18;4.13;;;;;;;;;;4999141;28;20112;-59
2023/06/05 03:33:52;;;;;;;8.43;3.92;;;;;;;;;;5000166;28;20080;-58
2023/06/05 03:36:18;;;;;;;5.97;3.72;;;;;;;;;;4999583;28;20083;-58
2023/06/05 03:38:44;;;;;;;7.78;3.70;;;;;;;;;;5000301;28;20141;-58
2023/06/05 03:41:11;;;;;;;6.88;4.05;;;;;;;;;;5001633;28;20041;-58
2023/06/05 03:43:37;;;;;;;6.28;3.67;;;;;;;;;;5000202;28;20048;-58
2023/06/05 03:46:04;;;;;;;9.18;4.63;;;;;;;;;;4998932;28;20052;-58
2023/06/05 03:48:30;;;;;;;5.63;3.45;;;;;;;;;;4999739;28;20029;-58
2023/06/05 03:50:57;;;;;;;6.38;3.55;;;;;;;;;;4999835;28;20068;-58
2023/06/05 03:53:23;;;;;;;6.85;4.10;;;;;;;;;;4999371;28;20366;-58
2023/06/05 03:55:52;;;;;;;6.07;3.92;;;;;;;;;;4999532;28;20501;-58
2023/06/05 03:58:19;;;;;;;6.55;3.85;;;;;;;;;;4998126;28;20034;-58
2023/06/05 04:00:46;;;;;;;5.65;3.45;;;;;;;;;;4999128;28;20544;-58
2023/06/05 04:03:12;;;;;;;7.03;3.53;;;;;;;;;;4999570;28;20125;-58
2023/06/05 04:05:39;;;;;;;5.90;3.75;;;;;;;;;;4999846;28;20077;-58
2023/06/05 04:08:06;;;;;;;6.95;3.33;;;;;;;;;;4999546;28;20060;-58
2023/06/05 04:10:32;;;;;;;6.13;3.65;;;;;;;;;;5001106;28;20029;-58
2023/06/05 04:12:58;;;;;;;5.80;3.17;;;;;;;;;;5000742;28;20037;-58
2023/06/05 04:15:25;;;;;;;6.00;3.78;;;;;;;;;;4998941;28;20056;-59
2023/06/05 04:17:52;;;;;;;6.50;3.28;;;;;;;;;;4998713;28;20535;-58
2023/06/05 04:20:18;;;;;;;5.38;3.17;;;;;;;;;;4999326;28;20164;-59
2023/06/05 04:22:45;;;;;;;5.40;2.90;;;;;;;;;;4997385;28;20040;-58
2023/06/05 04:25:12;;;;;;;4.53;2.40;;;;;;;;;;4998506;28;20115;-58
2023/06/05 04:27:42;;;;;;;4.53;2.20;;;;;;;;;;4999770;28;20598;-58
2023/06/05 04:30:09;;;;;;;4.38;2.10;;;;;;;;;;4998235;28;20652;-59
2023/06/05 04:32:39;;;;;;;4.60;2.10;;;;;;;;;;5000223;28;20497;-58
2023/06/05 04:35:09;;;;;;;3.53;1.75;;;;;;;;;;4999592;28;20137;-58
2023/06/05 04:37:36;;;;;;;4.53;2.30;;;;;;;;;;5000088;28;20033;-58
2023/06/05 04:40:05;;;;;;;4.10;1.98;;;;;;;;;;5000325;28;20120;-58
2023/06/05 04:42:35;;;;;;;3.83;2.38;;;;;;;;;;5000149;28;20665;-58
2023/06/05 04:45:03;;;;;;;3.97;2.10;;;;;;;;;;4999344;28;20037;-58
2023/06/05 04:47:29;;;;;;;5.43;2.28;;;;;;;;;;4999941;28;20033;-58
2023/06/05 04:49:58;;;;;;;4.18;2.17;;;;;;;;;;4996088;28;20030;-58
2023/06/05 04:52:24;;;;;;;3.38;2.13;;;;;;;;;;4995764;28;20029;-58
2023/06/05 04:54:50;;;;;;;4.57;2.20;;;;;;;;;;4997872;28;21856;-58
2023/06/05 04:57:18;;;;;;;4.82;2.72;;;;;;;;;;4996694;28;20532;-58
2023/06/05 04:59:44;;;;;;;4.45;2.25;;;;;;;;;;4998859;28;20022;-58
2023/06/05 05:02:11;;;;;;;4.38;2.40;;;;;;;;;;4998777;28;20086;-58
2023/06/05 05:04:37;;;;;;;3.58;2.10;;;;;;;;;;4998508;28;20033;-58
2023/06/05 05:07:03;;;;;;;5.63;2.13;;;;;;;;;;4999226;28;20057;-58
2023/06/05 05:09:30;;;;;;;4.55;2.00;;;;;;;;;;4994071;28;20226;-58
2023/06/05 05:11:57;;;;;;;4.97;2.00;;;;;;;;;;4994512;28;20838;-58
2023/06/05 05:14:24;;;;;;;4.30;1.73;;;;;;;;;;4999227;28;20063;-58
2023/06/05 05:16:50;;;;;;;6.53;2.35;;;;;;;;;;4998214;28;20022;-58
2023/06/05 05:19:16;;;;;;;4.57;2.17;;;;;;;;;;4997918;28;20040;-58
2023/06/05 05:21:42;;;;;;;5.50;2.15;;;;;;;;;;4998724;28;20124;-58
2023/06/05 05:24:09;;;;;;;5.53;1.70;;;;;;;;;;4998431;28;20042;-58
2023/06/05 05:26:35;;;;;;;5.57;2.30;;;;;;;;;;4999324;28;20037;-58
2023/06/05 05:29:01;;;;;;;5.93;2.38;;;;;;;;;;4999147;28;20084;-58
2023/06/05 05:31:29;;;;;;;5.53;2.10;;;;;;;;;;4998702;28;20492;-58
2023/06/05 05:33:55;;;;;;;5.95;2.40;;;;;;;;;;4997195;28;20037;-58
2023/06/05 05:36:21;;;;;;;3.83;1.90;;;;;;;;;;4997384;28;20152;-58
2023/06/05 05:38:47;;;;;;;4.90;1.95;;;;;;;;;;4998487;28;20493;-58
2023/06/05 05:41:13;;;;;;;2.75;1.20;;;;;;;;;;4997490;28;20627;-58
2023/06/05 05:43:39;;;;;;;4.20;1.48;;;;;;;;;;4997147;28;20032;-58
2023/06/05 05:46:05;;;;;;;4.18;1.83;;;;;;;;;;4998544;28;20088;-58
2023/06/05 05:48:31;;;;;;;5.13;2.03;;;;;;;;;;4998358;28;21742;-58
2023/06/05 05:50:57;;;;;;;5.10;1.85;;;;;;;;;;4998275;28;20040;-58
2023/06/05 05:53:24;;;;;;;3.38;1.80;;;;;;;;;;4998203;28;20562;-58
2023/06/05 05:55:50;;;;;;;4.20;2.15;;;;;;;;;;4997812;28;20530;-58
2023/06/05 05:58:16;;;;;;;2.90;1.67;;;;;;;;;;4997063;28;20045;-58
2023/06/05 06:00:42;;;;;;;4.50;1.85;;;;;;;;;;4998575;28;20772;-58
2023/06/05 06:03:09;;;;;;;6.00;2.50;;;;;;;;;;4998722;28;20480;-58
2023/06/05 06:05:35;;;;;;;4.47;1.92;;;;;;;;;;4998365;28;20048;-58
2023/06/05 06:08:03;;;;;;;4.32;1.73;;;;;;;;;;4997249;28;20069;-59
2023/06/05 06:10:30;;;;;;;3.75;2.20;;;;;;;;;;4997601;28;20030;-58
2023/06/05 06:12:56;;;;;;;5.25;2.00;;;;;;;;;;4998320;28;20114;-58
2023/06/05 06:15:22;;;;;;;5.78;2.53;;;;;;;;;;4997881;28;20620;-58
2023/06/05 06:17:48;;;;;;;4.20;2.40;;;;;;;;;;4998623;28;20503;-58
2023/06/05 06:20:15;;;;;;;7.53;2.55;;;;;;;;;;4998352;28;20057;-58
2023/06/05 06:22:42;;;;;;;4.50;2.20;;;;;;;;;;4998111;28;20087;-58
2023/06/05 06:25:10;;;;;;;8.77;2.60;;;;;;;;;;4995242;28;20084;-58
2023/06/05 06:27:37;;;;;;;5.93;2.45;;;;;;;;;;4996099;28;20125;-58
2023/06/05 06:30:04;;;;;;;5.00;2.30;;;;;;;;;;4995953;28;20045;-58
2023/06/05 06:32:30;;;;;;;4.78;2.30;;;;;;;;;;4996426;28;20627;-58
2023/06/05 06:34:56;;;;;;;3.25;1.70;;;;;;;;;;4996274;28;20034;-58
2023/06/05 06:37:22;;;;;;;5.53;2.17;;;;;;;;;;4994919;28;20030;-58
2023/06/05 06:39:48;;;;;;;6.97;2.80;;;;;;;;;;4998125;28;20041;-59
2023/06/05 06:42:15;;;;;;;5.05;2.25;;;;;;;;;;4993197;28;20053;-58
2023/06/05 06:44:41;;;;;;;5.25;2.42;;;;;;;;;;4997626;28;20038;-58
2023/06/05 06:47:08;;;;;;;5.38;2.28;;;;;;;;;;4996632;28;20096;-58
2023/06/05 06:49:38;;;;;;;4.43;2.08;;;;;;;;;;4997341;28;20485;-58
2023/06/05 06:52:04;;;;;;;5.10;2.35;;;;;;;;;;4998203;28;20042;-58
2023/06/05 06:54:31;;;;;;;4.40;2.17;;;;;;;;;;4996083;28;20425;-58
2023/06/05 06:56:57;;;;;;;6.03;2.42;;;;;;;;;;4997418;28;20032;-59
2023/06/05 06:59:23;;;;;;;4.35;2.05;;;;;;;;;;4996875;28;20030;-59
2023/06/05 07:02:09;;;;;;;5.38;2.10;;;;;;;;;;4998090;28;20030;-58
2023/06/05 07:04:35;;;;;;;5.40;2.25;;;;;;;;;;4997204;28;20933;-58
2023/06/05 07:07:01;;;;;;;4.22;2.17;;;;;;;;;;4996171;28;20045;-58
2023/06/05 07:09:27;;;;;;;5.18;2.67;;;;;;;;;;4996351;28;20489;-58
2023/06/05 07:11:56;;;;;;;5.32;2.72;;;;;;;;;;4997298;28;20116;-58
2023/06/05 07:14:23;;;;;;;4.57;2.40;;;;;;;;;;4996600;28;20049;-59
2023/06/05 07:16:51;;;;;;;4.50;2.40;;;;;;;;;;4997295;28;20038;-58
2023/06/05 07:19:17;;;;;;;4.20;2.20;;;;;;;;;;4996838;28;20091;-58
2023/06/05 07:21:43;;;;;;;5.10;2.20;;;;;;;;;;4996456;28;20672;-58
2023/06/05 07:24:09;;;;;;;5.28;2.10;;;;;;;;;;4997534;28;20033;-58
2023/06/05 07:26:36;;;;;;;5.50;2.65;;;;;;;;;;4997192;28;20044;-58
2023/06/05 07:29:02;;;;;;;6.03;2.40;;;;;;;;;;4995610;28;20186;-58
2023/06/05 07:31:30;;;;;;;4.93;2.45;;;;;;;;;;4997558;28;20077;-58
2023/06/05 07:33:56;;;;;;;4.35;2.50;;;;;;;;;;4997464;28;21835;-58
2023/06/05 07:36:22;;;;;;;4.93;2.40;;;;;;;;;;4985590;28;20145;-58
2023/06/05 07:38:49;;;;;;;5.28;2.67;;;;;;;;;;4988865;28;20072;-58
2023/06/05 07:41:15;;;;;;;5.03;2.40;;;;;;;;;;4987590;28;20034;-58
2023/06/05 07:43:42;;;;;;;5.20;3.00;;;;;;;;;;4988749;28;20034;-58
2023/06/05 07:46:08;;;;;;;5.43;2.80;;;;;;;;;;4988280;28;20080;-58
2023/06/05 07:48:35;;;;;;;4.65;2.05;;;;;;;;;;4988587;28;20113;-58
2023/06/05 07:51:01;;;;;;;5.20;2.47;;;;;;;;;;4990906;28;20034;-58
2023/06/05 07:53:27;;;;;;;6.28;2.40;;;;;;;;;;4992365;28;20072;-58
2023/06/05 07:55:53;;;;;;;6.43;2.15;;;;;;;;;;4991924;28;20034;-58
2023/06/05 07:58:20;;;;;;;4.95;2.40;;;;;;;;;;4992252;28;20847;-58
2023/06/05 08:00:50;;;;;;;4.03;2.05;;;;;;;;;;4992551;28;20041;-58
2023/06/05 08:03:20;;;;;;;3.80;2.30;;;;;;;;;;4999006;28;20164;-58
2023/06/05 08:05:52;;;;;;;4.25;2.10;;;;;;;;;;5000251;28;20045;-58
2023/06/05 08:08:18;;;;;;;4.50;2.03;;;;;;;;;;5000327;28;20576;-58
2023/06/05 08:10:45;;;;;;;3.50;1.98;;;;;;;;;;5000030;28;20046;-58
2023/06/05 08:13:11;;;;;;;3.60;1.90;;;;;;;;;;4999950;28;20049;-58
2023/06/05 08:15:37;;;;;;;18.25;3.67;;;;;;;;;;5000043;28;20033;-58
2023/06/05 08:18:04;;;;;;;10.68;2.72;;;;;;;;;;5000061;28;20037;-58
2023/06/05 08:20:30;;;;;;;6.30;2.28;;;;;;;;;;5000293;28;20037;-58
2023/06/05 08:22:59;;;;;;;8.75;2.10;;;;;;;;;;5000076;28;20034;-58
2023/06/05 08:25:25;;;;;;;8.60;2.28;;;;;;;;;;5000398;28;20030;-58
2023/06/05 08:27:51;;;;;;;6.35;2.17;;;;;;;;;;5000503;28;20093;-58
2023/06/05 08:30:18;;;;;;;3.35;1.63;;;;;;;;;;4999677;28;20029;-58
2023/06/05 08:32:44;;;;;;;5.13;2.35;;;;;;;;;;4998119;28;20049;-58
2023/06/05 08:35:12;;;;;;;13.52;3.30;;;;;;;;;;4998395;28;20030;-58
2023/06/05 08:37:38;;;;;;;4.45;2.40;;;;;;;;;;4999249;28;20045;-58
2023/06/05 08:40:06;;;;;;;11.00;2.35;;;;;;;;;;4998507;28;20048;-58
2023/06/05 08:42:32;;;;;;;6.35;2.40;;;;;;;;;;4999133;28;20029;-59
2023/06/05 08:44:58;;;;;;;5.85;2.10;;;;;;;;;;4989947;28;20076;-58
2023/06/05 08:47:26;;;;;;;4.03;2.10;;;;;;;;;;4990601;28;20265;-58
2023/06/05 08:49:53;;;;;;;12.10;2.83;;;;;;;;;;4992034;28;20048;-58
2023/06/05 08:52:21;;;;;;;7.50;2.45;;;;;;;;;;4991842;28;20049;-59
2023/06/05 08:54:48;;;;;;;5.88;2.45;;;;;;;;;;4991791;28;20073;-58
2023/06/05 08:57:14;;;;;;;5.38;2.55;;;;;;;;;;4991111;28;20034;-58
2023/06/05 08:59:40;;;;;;;7.32;2.17;;;;;;;;;;4990220;28;21751;-58
2023/06/05 09:02:07;;;;;;;6.10;2.20;;;;;;;;;;4991106;28;20155;-59
2023/06/05 09:04:34;;;;;;;3.13;2.00;;;;;;;;;;4988938;28;20523;-58
2023/06/05 09:07:00;;;;;;;5.18;2.53;;;;;;;;;;4989717;28;20555;-58
2023/06/05 09:09:27;;;;;;;7.90;2.45;;;;;;;;;;4991947;28;21865;-58
2023/06/05 09:12:03;;;;;;;4.55;2.70;;;;;;;;;;4992176;28;20127;-59
2023/06/05 09:14:31;;;;;;;5.40;2.65;;;;;;;;;;4987785;28;20061;-59
2023/06/05 09:16:57;;;;;;;7.43;2.58;;;;;;;;;;4992381;28;20050;-59
2023/06/05 09:19:27;;;;;;;8.57;2.60;;;;;;;;;;4991204;28;20065;-58
2023/06/05 09:21:54;;;;;;;4.32;2.40;;;;;;;;;;4992857;28;20124;-58
2023/06/05 09:24:21;;;;;;;6.45;2.63;;;;;;;;;;4990348;28;20053;-59
2023/06/05 09:26:49;;;;;;;4.75;2.35;;;;;;;;;;4991880;28;20033;-58
2023/06/05 09:29:31;;;;;;;6.70;2.47;;;;;;;;;;4991090;28;20069;-58
2023/06/05 09:32:02;;;;;;;7.72;2.55;;;;;;;;;;4990945;28;20117;-59
2023/06/05 09:34:29;;;;;;;5.82;2.80;;;;;;;;;;4991189;28;20484;-58
2023/06/05 09:36:57;;;;;;;5.78;2.45;;;;;;;;;;4991562;28;20029;-58
2023/06/05 09:39:25;;;;;;;5.30;2.63;;;;;;;;;;4991115;28;20112;-59
2023/06/05 09:41:51;;;;;;;5.10;2.35;;;;;;;;;;4996844;28;20091;-59
2023/06/05 09:44:18;;;;;;;7.28;2.80;;;;;;;;;;4997214;28;20108;-59
2023/06/05 09:46:58;;;;;;;6.10;2.80;;;;;;;;;;4997441;28;20109;-59
2023/06/05 09:49:31;;;;;;;4.75;2.45;;;;;;;;;;4997160;28;20083;-58
2023/06/05 09:51:58;;;;;;;5.25;2.28;;;;;;;;;;4997951;28;20496;-59
2023/06/05 09:54:28;;;;;;;4.05;1.98;;;;;;;;;;4997165;28;20124;-58
2023/06/05 09:57:01;;;;;;;4.15;1.85;;;;;;;;;;4998039;28;20041;-59
2023/06/05 09:59:32;;;;;;;16.40;2.67;;;;;;;;;;4997758;28;20049;-59
2023/06/05 10:02:01;;;;;;;4.78;2.15;;;;;;;;;;4997630;28;20029;-58
2023/06/05 10:04:28;;;;;;;6.82;2.33;;;;;;;;;;4998190;28;20092;-58
2023/06/05 10:06:55;;;;;;;5.05;2.15;;;;;;;;;;4997178;28;20147;-59
2023/06/05 10:09:22;;;;;;;5.07;2.50;;;;;;;;;;4997317;28;20076;-58
2023/06/05 10:11:51;;;;;;;4.88;2.35;;;;;;;;;;4997398;28;20148;-58
2023/06/05 10:14:18;;;;;;;5.75;2.72;;;;;;;;;;4995297;28;20072;-58
2023/06/05 10:16:45;;;;;;;4.60;2.47;;;;;;;;;;4989132;28;20029;-59
2023/06/05 10:19:12;;;;;;;3.95;2.20;;;;;;;;;;4989742;28;20033;-58
2023/06/05 10:21:38;;;;;;;5.47;2.72;;;;;;;;;;4990330;28;20026;-58
2023/06/05 10:24:11;;;;;;;5.20;2.85;;;;;;;;;;4990856;28;20143;-58
2023/06/05 10:26:43;;;;;;;3.85;2.03;;;;;;;;;;4990212;28;20030;-58
2023/06/05 10:29:28;;;;;;;4.28;2.55;;;;;;;;;;4989005;28;20032;-59
2023/06/05 10:32:01;;;;;;;4.22;2.33;;;;;;;;;;4990031;28;20050;-59
2023/06/05 10:34:48;;;;;;;4.03;2.30;;;;;;;;;;4991140;28;20045;-58
2023/06/05 10:37:33;;;;;;;4.78;2.40;;;;;;;;;;4989288;28;20115;-59
2023/06/05 10:39:59;;;;;;;5.47;2.70;;;;;;;;;;4987015;28;20112;-59
2023/06/05 10:42:28;;;;;;;5.05;2.35;;;;;;;;;;4986095;28;20111;-58
2023/06/05 10:44:55;;;;;;;4.90;2.30;;;;;;;;;;4989471;28;20041;-58
2023/06/05 10:47:42;;;;;;;7.80;2.35;;;;;;;;;;4982823;28;20041;-59
2023/06/05 10:50:20;;;;;;;4.13;2.00;;;;;;;;;;4976510;28;20092;-59
2023/06/05 10:52:47;;;;;;;3.92;2.25;;;;;;;;;;4987899;28;20234;-59
2023/06/05 10:55:15;;;;;;;4.57;2.30;;;;;;;;;;4988339;28;20493;-59
2023/06/05 10:58:00;;;;;;;3.78;1.83;;;;;;;;;;4988613;28;20037;-58
2023/06/05 11:00:27;;;;;;;5.22;2.47;;;;;;;;;;4988486;28;20030;-59
2023/06/05 11:02:54;;;;;;;4.97;2.08;;;;;;;;;;4986906;28;20038;-58
2023/06/05 11:05:20;;;;;;;5.03;2.17;;;;;;;;;;4988232;28;20054;-59
2023/06/05 11:07:46;;;;;;;3.97;2.10;;;;;;;;;;4988214;28;20057;-59
2023/06/05 11:10:17;;;;;;;4.53;1.95;;;;;;;;;;4988584;28;20113;-59
2023/06/05 11:12:43;;;;;;;3.15;1.75;;;;;;;;;;4987342;28;21591;-59
2023/06/05 11:15:12;;;;;;;5.65;2.20;;;;;;;;;;4988012;28;21775;-59
2023/06/05 11:17:39;;;;;;;4.03;2.05;;;;;;;;;;4988681;28;20156;-59
2023/06/05 11:20:09;;;;;;;3.95;1.90;;;;;;;;;;4988968;28;20044;-59
2023/06/05 11:22:55;;;;;;;4.30;2.38;;;;;;;;;;4989920;28;20041;-59
2023/06/05 11:25:24;;;;;;;5.70;2.10;;;;;;;;;;4991916;28;20030;-59
2023/06/05 11:28:01;;;;;;;3.95;2.03;;;;;;;;;;4991736;28;20128;-59
2023/06/05 11:30:32;;;;;;;4.38;1.90;;;;;;;;;;4991799;28;20034;-59
2023/06/05 11:33:08;;;;;;;5.10;2.15;;;;;;;;;;4992196;28;20048;-58
2023/06/05 11:35:35;;;;;;;5.30;1.88;;;;;;;;;;4992641;28;20026;-58
2023/06/05 11:38:08;;;;;;;5.90;2.17;;;;;;;;;;4993116;28;20029;-59
2023/06/05 11:40:35;;;;;;;5.05;2.95;;;;;;;;;;4991659;28;20030;-59
2023/06/05 11:43:05;;;;;;;6.68;2.38;;;;;;;;;;4993017;28;20022;-59
2023/06/05 11:45:35;;;;;;;5.22;2.03;;;;;;;;;;4992929;28;20037;-59
2023/06/05 11:48:20;;;;;;;4.65;2.05;;;;;;;;;;4992774;28;20566;-59
2023/06/05 11:50:52;;;;;;;4.05;1.75;;;;;;;;;;4991846;28;20111;-58
2023/06/05 11:53:18;;;;;;;4.43;2.13;;;;;;;;;;4991669;28;20033;-59
2023/06/05 11:58:22;;;;;;;4.97;2.10;;;;;;;;;;4990843;28;20136;-58
2023/06/05 12:00:48;;;;;;;4.53;2.15;;;;;;;;;;4990412;28;20173;-59
2023/06/05 12:03:18;;;;;;;5.15;1.98;;;;;;;;;;4991677;28;21923;-59
2023/06/05 12:05:45;;;;;;;3.30;1.98;;;;;;;;;;4992482;28;20225;-59
2023/06/05 12:08:32;;;;;;;4.03;2.15;;;;;;;;;;4992333;28;20037;-59
2023/06/05 12:10:59;;;;;;;12.90;3.63;;;;;;;;;;4992235;28;20181;-59
2023/06/05 12:13:44;;;;;;;4.18;2.47;;;;;;;;;;4992335;28;20091;-58
2023/06/05 12:16:10;;;;;;;4.10;2.33;;;;;;;;;;4990017;28;20038;-59
2023/06/05 12:18:36;;;;;;;5.60;2.05;;;;;;;;;;5006613;28;20084;-58
2023/06/05 12:21:02;;;;;;;5.68;2.40;;;;;;;;;;4992082;28;20052;-59
2023/06/05 12:23:32;;;;;;;5.15;2.20;;;;;;;;;;4991325;28;20029;-59
2023/06/05 12:25:59;;;;;;;5.10;2.72;;;;;;;;;;4991496;28;20033;-58
2023/06/05 12:28:27;;;;;;;7.10;2.30;;;;;;;;;;4991121;28;20029;-59
2023/06/05 12:30:53;;;;;;;4.05;2.25;;;;;;;;;;4991757;28;20026;-58
2023/06/05 12:33:19;;;;;;;14.45;3.13;;;;;;;;;;4990046;28;20050;-58
2023/06/05 12:35:46;;;;;;;4.63;2.45;;;;;;;;;;4989940;28;20026;-59
2023/06/05 12:38:12;;;;;;;4.65;2.30;;;;;;;;;;4991601;28;20032;-59
2023/06/05 12:40:39;;;;;;;5.93;2.50;;;;;;;;;;4991679;28;20034;-58
2023/06/05 12:43:17;;;;;;;5.68;2.47;;;;;;;;;;4995665;28;20022;-59
2023/06/05 12:45:43;;;;;;;5.65;2.95;;;;;;;;;;4999061;28;20037;-58
2023/06/05 12:48:10;;;;;;;6.25;3.13;;;;;;;;;;4995634;28;20501;-59
2023/06/05 12:50:37;;;;;;;6.63;3.03;;;;;;;;;;4996897;28;20052;-59
2023/06/05 12:53:03;;;;;;;5.00;2.83;;;;;;;;;;4998568;28;20980;-59
2023/06/05 12:55:29;;;;;;;8.32;3.00;;;;;;;;;;4998169;28;20037;-59
2023/06/05 12:57:55;;;;;;;5.20;2.88;;;;;;;;;;4997540;28;20548;-58
2023/06/05 13:00:21;;;;;;;5.93;3.30;;;;;;;;;;4987817;28;20084;-58
2023/06/05 13:02:48;;;;;;;6.05;3.38;;;;;;;;;;4991637;28;20115;-59
2023/06/05 13:05:17;;;;;;;7.03;3.17;;;;;;;;;;4989947;28;20107;-59
2023/06/05 13:07:43;;;;;;;5.30;3.05;;;;;;;;;;4990455;28;20126;-59
2023/06/05 13:10:11;;;;;;;5.95;3.28;;;;;;;;;;4989105;28;21459;-59
2023/06/05 13:12:37;;;;;;;6.20;2.97;;;;;;;;;;4990547;28;20034;-59
2023/06/05 13:15:06;;;;;;;5.93;3.25;;;;;;;;;;4987425;28;21492;-59
2023/06/05 13:17:35;;;;;;;4.75;3.08;;;;;;;;;;4990904;28;20045;-59
2023/06/05 13:20:03;;;;;;;7.18;3.67;;;;;;;;;;4990801;28;20030;-59
2023/06/05 13:22:29;;;;;;;11.32;4.60;;;;;;;;;;4990699;28;20030;-59
2023/06/05 13:24:56;;;;;;;6.38;3.65;;;;;;;;;;4990600;28;20033;-59
2023/06/05 13:27:22;;;;;;;7.53;3.40;;;;;;;;;;4991014;28;20034;-59
2023/06/05 13:29:48;;;;;;;6.40;3.30;;;;;;;;;;5004130;28;20493;-59
2023/06/05 13:32:14;;;;;;;6.32;3.47;;;;;;;;;;4989972;28;20795;-58
2023/06/05 13:34:40;;;;;;;7.03;3.88;;;;;;;;;;4990784;28;20531;-58
2023/06/05 13:37:06;;;;;;;7.18;3.80;;;;;;;;;;4990877;28;20018;-59
2023/06/05 13:39:32;;;;;;;5.60;3.28;;;;;;;;;;4990719;28;20896;-58
2023/06/05 13:41:58;;;;;;;5.97;3.40;;;;;;;;;;4989603;28;20037;-58
2023/06/05 13:44:24;;;;;;;5.50;3.38;;;;;;;;;;4990319;28;20034;-59
2023/06/05 13:46:51;;;;;;;6.97;3.13;;;;;;;;;;4993550;28;20050;-59
2023/06/05 13:49:17;;;;;;;6.13;3.83;;;;;;;;;;4997057;28;20049;-58
2023/06/05 13:51:43;;;;;;;7.40;3.33;;;;;;;;;;4997191;28;20042;-58
2023/06/05 13:54:09;;;;;;;7.10;3.92;;;;;;;;;;4998039;28;20768;-59
2023/06/05 13:56:35;;;;;;;6.85;3.55;;;;;;;;;;4997538;28;21774;-59
2023/06/05 13:59:01;;;;;;;7.72;3.67;;;;;;;;;;4998432;28;20030;-58
2023/06/05 14:01:27;;;;;;;7.32;3.97;;;;;;;;;;4998496;28;20029;-59
2023/06/05 14:03:53;;;;;;;7.57;3.83;;;;;;;;;;4997870;28;20033;-59
2023/06/05 14:06:20;;;;;;;9.10;3.90;;;;;;;;;;4998046;28;20444;-58
2023/06/05 14:08:46;;;;;;;8.07;3.55;;;;;;;;;;4997792;28;20083;-59
2023/06/05 14:11:12;;;;;;;6.30;3.70;;;;;;;;;;4998312;28;20091;-59
2023/06/05 14:13:38;;;;;;;6.60;3.65;;;;;;;;;;4998208;28;21773;-59
2023/06/05 14:16:04;;;;;;;7.13;3.92;;;;;;;;;;4997786;28;20168;-59
2023/06/05 14:18:30;;;;;;;6.45;3.40;;;;;;;;;;4996888;28;20052;-59
2023/06/05 14:20:57;;;;;;;5.40;3.47;;;;;;;;;;4997901;28;20029;-59
2023/06/05 14:23:24;;;;;;;7.35;3.83;;;;;;;;;;4997938;28;20030;-59
2023/06/05 14:25:50;;;;;;;10.27;4.22;;;;;;;;;;4998157;28;20519;-59
2023/06/05 14:28:19;;;;;;;5.95;3.50;;;;;;;;;;4998146;28;20878;-59
2023/06/05 14:30:45;;;;;;;6.88;3.58;;;;;;;;;;4998437;28;20058;-59
2023/06/05 14:33:11;;;;;;;6.80;3.42;;;;;;;;;;4998363;28;20052;-59
2023/06/05 14:35:37;;;;;;;7.60;4.22;;;;;;;;;;4996753;28;20721;-59
2023/06/05 14:38:03;;;;;;;6.10;3.38;;;;;;;;;;4997821;28;20030;-58
2023/06/05 14:40:31;;;;;;;6.80;3.83;;;;;;;;;;4994852;28;20037;-59
2023/06/05 14:42:57;;;;;;;5.93;3.30;;;;;;;;;;4997590;28;20057;-59
2023/06/05 14:45:23;;;;;;;9.05;3.63;;;;;;;;;;4996542;28;20040;-59